Time;durP1;ratioP1;P1;durP2;ratioP2;P2;SDS_P1;SDS_P2;PMS_P1;PMS_P2;Temp;Humidity;BMP_temperature;BMP_pressure;BME280_temperature;BME280_humidity;BME280_pressure;Samples;Min_cycle;Max_cycle;Signal;HPM_P1;HPM_P2
2022/11/28 00:00:54;;;;;;;3.57;2.47;;;-5.70;99.90;;;;;;5014457;28;20198;-76
2022/11/28 00:03:21;;;;;;;3.27;2.10;;;-5.20;99.90;;;;;;5016939;28;20210;-80
2022/11/28 00:05:47;;;;;;;3.00;2.70;;;-5.20;99.90;;;;;;5024242;28;20189;-78
2022/11/28 00:08:13;;;;;;;3.60;2.60;;;-4.70;99.90;;;;;;5014618;28;20590;-80
2022/11/28 00:10:40;;;;;;;2.53;2.33;;;-4.40;99.90;;;;;;5027987;28;20189;-79
2022/11/28 00:13:05;;;;;;;5.37;2.20;;;-3.80;99.90;;;;;;5014586;28;20218;-80
2022/11/28 00:15:31;;;;;;;2.80;2.17;;;-5.80;99.90;;;;;;5012082;28;20175;-80
2022/11/28 00:17:57;;;;;;;4.13;2.77;;;-4.60;99.90;;;;;;5027167;28;20190;-78
2022/11/28 00:20:23;;;;;;;3.00;2.40;;;-5.20;99.90;;;;;;5012366;28;20213;-78
2022/11/28 00:22:49;;;;;;;2.60;2.40;;;-3.00;99.90;;;;;;5019398;28;20308;-80
2022/11/28 00:25:15;;;;;;;4.17;2.87;;;-2.90;99.90;;;;;;5014104;28;20189;-79
2022/11/28 00:27:41;;;;;;;3.97;2.97;;;-4.50;99.90;;;;;;5014525;28;20177;-80
2022/11/28 00:30:07;;;;;;;2.37;2.17;;;-3.70;99.90;;;;;;5015417;28;20176;-80
2022/11/28 00:32:33;;;;;;;2.87;2.67;;;-5.60;99.90;;;;;;5027816;28;20183;-84
2022/11/28 00:34:59;;;;;;;3.23;2.23;;;-1.80;99.90;;;;;;5014121;28;20199;-77
2022/11/28 00:37:25;;;;;;;3.87;2.90;;;-4.20;99.90;;;;;;5014095;28;20170;-77
2022/11/28 00:39:51;;;;;;;4.13;3.03;;;-5.70;99.90;;;;;;5014518;28;20213;-82
2022/11/28 00:42:19;;;;;;;3.07;2.80;;;-7.30;99.90;;;;;;5014122;28;20185;-82
2022/11/28 00:44:45;;;;;;;2.70;2.47;;;-3.50;99.90;;;;;;5013947;28;20206;-82
2022/11/28 00:47:11;;;;;;;4.10;2.27;;;-4.70;99.90;;;;;;5013542;28;20538;-81
2022/11/28 00:49:37;;;;;;;3.50;2.50;;;-4.60;99.90;;;;;;5014407;28;20217;-82
2022/11/28 00:52:03;;;;;;;4.67;3.00;;;-4.60;99.90;;;;;;5017846;28;20578;-78
2022/11/28 00:54:29;;;;;;;3.40;2.30;;;-5.70;99.90;;;;;;5018014;28;20609;-82
2022/11/28 00:56:54;;;;;;;5.13;3.40;;;-4.50;99.90;;;;;;5017966;28;20489;-81
2022/11/28 00:59:20;;;;;;;3.30;2.30;;;-4.80;99.90;;;;;;5017863;28;20173;-81
2022/11/28 01:01:46;;;;;;;4.27;2.53;;;-2.90;99.90;;;;;;5028090;28;20193;-82
2022/11/28 01:04:14;;;;;;;3.93;2.37;;;-4.30;99.90;;;;;;5017242;28;20209;-81
2022/11/28 01:06:48;;;;;;;3.00;2.70;;;-4.90;99.90;;;;;;5017851;28;20174;-81
2022/11/28 01:09:16;;;;;;;4.07;2.97;;;-2.60;99.90;;;;;;5017687;28;20185;-79
2022/11/28 01:11:44;;;;;;;4.17;2.60;;;-5.10;99.90;;;;;;5049416;28;20231;-82
2022/11/28 01:14:10;;;;;;;3.13;2.10;;;-4.80;99.90;;;;;;5017516;28;20189;-75
2022/11/28 01:16:36;;;;;;;2.83;2.63;;;-4.80;99.90;;;;;;5029456;28;20470;-75
2022/11/28 01:19:02;;;;;;;5.27;3.03;;;-4.40;99.90;;;;;;5017334;28;20178;-77
2022/11/28 01:21:28;;;;;;;2.73;2.53;;;-4.00;99.90;;;;;;5017313;28;20594;-80
2022/11/28 01:23:54;;;;;;;7.33;2.97;;;-4.70;99.90;;;;;;5016997;28;20617;-81
2022/11/28 01:26:26;;;;;;;4.77;3.17;;;-2.10;99.90;;;;;;5025331;28;20181;-75
2022/11/28 01:28:52;;;;;;;4.43;2.73;;;-4.00;99.90;;;;;;5017073;28;20403;-81
2022/11/28 01:31:22;;;;;;;3.23;2.97;;;-6.00;99.90;;;;;;5017770;28;20568;-78
2022/11/28 01:33:49;;;;;;;3.37;2.77;;;-3.90;99.90;;;;;;5017052;28;20637;-77
2022/11/28 01:36:16;;;;;;;3.60;3.33;;;-4.90;99.90;;;;;;5017203;28;20180;-78
2022/11/28 01:38:42;;;;;;;4.43;3.37;;;-4.00;99.90;;;;;;5017389;28;20185;-79
2022/11/28 01:41:09;;;;;;;3.40;3.10;;;-2.90;99.90;;;;;;5026785;28;20191;-77
2022/11/28 01:43:36;;;;;;;3.33;3.13;;;-3.60;99.90;;;;;;5019743;28;20198;-82
2022/11/28 01:46:04;;;;;;;2.80;2.60;;;-3.40;99.90;;;;;;5054424;28;20191;-77
2022/11/28 01:48:38;;;;;;;2.57;2.37;;;-5.40;99.90;;;;;;5019007;28;20184;-84
2022/11/28 01:51:07;;;;;;;5.37;4.30;;;-6.20;99.90;;;;;;5023404;28;20213;-80
2022/11/28 01:53:38;;;;;;;8.27;4.37;;;-3.20;99.90;;;;;;5016808;28;20201;-74
2022/11/28 01:56:50;;;;;;;6.90;3.60;;;-4.90;99.90;;;;;;5018881;28;20213;-78
2022/11/28 01:59:17;;;;;;;4.57;4.13;;;-4.70;99.90;;;;;;5014209;28;20189;-83
2022/11/28 02:01:44;;;;;;;5.77;3.43;;;-4.50;99.90;;;;;;5020291;28;20173;-74
2022/11/28 02:04:12;;;;;;;3.77;3.37;;;-4.60;99.90;;;;;;5016653;28;20284;-78
2022/11/28 02:06:39;;;;;;;4.77;3.73;;;-4.60;99.90;;;;;;5032031;28;20200;-75
2022/11/28 02:09:11;;;;;;;5.50;3.70;;;-4.80;99.90;;;;;;5016429;28;20203;-75
2022/11/28 02:12:13;;;;;;;3.77;2.97;;;-2.50;99.90;;;;;;5016582;28;20248;-76
2022/11/28 02:15:01;;;;;;;3.43;3.10;;;-5.20;99.90;;;;;;5016342;28;20197;-76
2022/11/28 02:17:49;;;;;;;5.23;3.27;;;-5.30;99.90;;;;;;5016542;28;20201;-77
2022/11/28 02:20:33;;;;;;;4.63;3.80;;;-5.30;99.90;;;;;;5016268;28;20186;-77
2022/11/28 02:23:30;;;;;;;3.70;3.33;;;-5.40;99.90;;;;;;5015971;28;20185;-76
2022/11/28 02:26:42;;;;;;;4.23;3.87;;;-5.30;99.90;;;;;;5026485;28;20218;-76
2022/11/28 02:29:34;;;;;;;5.10;3.57;;;-5.00;99.90;;;;;;5015652;28;20593;-77
2022/11/28 02:32:26;;;;;;;4.67;3.43;;;-4.50;99.90;;;;;;5016549;28;20189;-76
2022/11/28 02:35:26;;;;;;;4.53;3.77;;;-5.10;99.90;;;;;;5015922;28;20186;-77
2022/11/28 02:38:04;;;;;;;4.37;3.37;;;-5.70;99.90;;;;;;5015994;28;20619;-76
2022/11/28 02:40:42;;;;;;;5.17;3.77;;;-4.70;99.90;;;;;;5015585;28;20228;-76
2022/11/28 02:43:23;;;;;;;3.60;3.33;;;-4.30;99.90;;;;;;5015364;28;20230;-77
2022/11/28 02:46:09;;;;;;;3.57;3.27;;;-5.20;99.90;;;;;;5016170;28;20181;-75
2022/11/28 02:48:50;;;;;;;3.27;3.07;;;-4.40;99.90;;;;;;5015946;28;20185;-76
2022/11/28 02:51:20;;;;;;;6.87;3.87;;;-3.60;99.90;;;;;;5015702;28;20390;-76
2022/11/28 02:53:50;;;;;;;4.00;3.33;;;-2.90;99.90;;;;;;5020641;28;20240;-83
2022/11/28 02:56:16;;;;;;;4.83;3.90;;;-5.40;99.90;;;;;;5015494;28;20177;-75
2022/11/28 02:58:42;;;;;;;3.47;3.10;;;-5.90;99.90;;;;;;5015381;28;20189;-78
2022/11/28 03:01:19;;;;;;;3.87;3.47;;;-6.40;99.90;;;;;;5029152;28;20178;-81
2022/11/28 03:03:48;;;;;;;4.10;3.70;;;-5.60;99.90;;;;;;5014938;28;20216;-76
2022/11/28 03:06:44;;;;;;;3.57;3.30;;;-5.70;99.90;;;;;;5046988;28;20178;-75
2022/11/28 03:10:02;;;;;;;6.20;3.93;;;-6.40;99.90;;;;;;5015065;28;20256;-78
2022/11/28 03:12:47;;;;;;;3.80;3.50;;;-6.80;99.90;;;;;;5011072;28;20193;-75
2022/11/28 03:15:18;;;;;;;4.73;3.90;;;-6.70;99.90;;;;;;5020351;28;20181;-75
2022/11/28 03:17:53;;;;;;;4.63;2.80;;;-6.60;99.90;;;;;;5015070;28;20173;-75
2022/11/28 03:20:32;;;;;;;3.70;3.40;;;-5.60;99.90;;;;;;5015352;28;20267;-75
2022/11/28 03:23:12;;;;;;;2.93;2.73;;;-5.30;99.90;;;;;;5014988;28;20236;-75
2022/11/28 03:26:04;;;;;;;3.23;2.97;;;-5.80;99.90;;;;;;5015329;28;20192;-78
2022/11/28 03:28:37;;;;;;;3.97;3.57;;;-5.20;99.90;;;;;;5015565;28;20260;-76
2022/11/28 03:31:07;;;;;;;4.17;3.83;;;-5.90;99.90;;;;;;5016455;28;20580;-76
2022/11/28 03:33:37;;;;;;;4.40;3.50;;;-5.40;99.90;;;;;;5015256;28;20186;-77
2022/11/28 03:36:14;;;;;;;4.07;3.23;;;-5.20;99.90;;;;;;5015490;28;20283;-76
2022/11/28 03:38:47;;;;;;;3.60;3.33;;;-6.40;99.90;;;;;;5015349;28;20192;-75
2022/11/28 03:41:23;;;;;;;3.43;3.13;;;-7.00;99.90;;;;;;5023491;28;20192;-74
2022/11/28 03:43:54;;;;;;;5.03;3.37;;;-7.00;99.90;;;;;;5019844;28;20219;-75
2022/11/28 03:46:23;;;;;;;4.37;3.97;;;-7.00;99.90;;;;;;5014286;28;20319;-75
2022/11/28 03:48:53;;;;;;;4.20;3.37;;;-4.40;99.90;;;;;;5015134;28;20186;-75
2022/11/28 03:51:37;;;;;;;3.57;2.80;;;-4.00;99.90;;;;;;5014393;28;20174;-75
2022/11/28 03:54:12;;;;;;;4.10;3.80;;;-5.60;99.90;;;;;;5014506;28;20197;-77
2022/11/28 03:57:11;;;;;;;3.10;2.90;;;-4.20;99.90;;;;;;5014295;28;20259;-77
2022/11/28 03:59:45;;;;;;;3.73;3.43;;;-7.20;99.90;;;;;;5013914;28;20203;-74
2022/11/28 04:02:23;;;;;;;3.27;3.00;;;-7.30;99.90;;;;;;5014328;28;20185;-74
2022/11/28 04:05:06;;;;;;;4.07;2.90;;;-6.90;99.90;;;;;;5014147;28;20220;-77
2022/11/28 04:07:47;;;;;;;2.60;2.40;;;-7.10;99.90;;;;;;5014514;28;20216;-74
2022/11/28 04:10:13;;;;;;;4.90;3.77;;;-5.80;99.90;;;;;;5014289;28;20889;-76
2022/11/28 04:12:55;;;;;;;3.47;3.17;;;-6.20;99.90;;;;;;5014429;28;20216;-75
2022/11/28 04:15:31;;;;;;;3.30;3.10;;;-7.20;99.90;;;;;;5025604;28;20187;-77
2022/11/28 04:17:59;;;;;;;3.43;3.13;;;-6.30;99.90;;;;;;5014543;28;20183;-75
2022/11/28 04:21:03;;;;;;;3.07;2.87;;;-5.50;99.90;;;;;;5014495;28;20577;-75
2022/11/28 04:23:31;;;;;;;5.67;2.80;;;-6.20;99.90;;;;;;5017641;28;20201;-75
2022/11/28 04:26:27;;;;;;;3.60;3.30;;;-6.10;99.90;;;;;;5016104;28;20194;-74
2022/11/28 04:28:55;;;;;;;2.97;2.77;;;-5.70;99.90;;;;;;5016565;28;20191;-76
2022/11/28 04:31:23;;;;;;;4.83;3.13;;;-6.40;99.90;;;;;;5021006;28;20468;-74
2022/11/28 04:33:55;;;;;;;3.77;3.27;;;-6.60;99.90;;;;;;5019736;28;20205;-75
2022/11/28 04:36:24;;;;;;;4.07;3.43;;;-7.20;99.90;;;;;;5019528;28;20192;-74
2022/11/28 04:39:00;;;;;;;4.17;3.87;;;-7.00;99.90;;;;;;5032158;28;20194;-74
2022/11/28 04:41:36;;;;;;;4.17;3.80;;;-5.60;99.90;;;;;;5018111;28;20845;-74
2022/11/28 04:44:14;;;;;;;5.67;4.40;;;-5.90;99.90;;;;;;5017704;28;20212;-74
2022/11/28 04:46:47;;;;;;;4.20;3.90;;;-6.70;99.90;;;;;;5017876;28;20187;-74
2022/11/28 04:49:13;;;;;;;6.00;5.50;;;-6.20;99.90;;;;;;5017781;28;20182;-75
2022/11/28 04:51:48;;;;;;;5.10;4.80;;;-6.70;99.90;;;;;;5019102;28;20215;-75
2022/11/28 04:54:39;;;;;;;5.13;4.73;;;-3.70;99.90;;;;;;5029511;28;20632;-74
2022/11/28 04:57:20;;;;;;;5.27;4.87;;;-7.10;99.90;;;;;;5017368;28;20192;-77
2022/11/28 04:59:47;;;;;;;6.50;5.90;;;-6.60;99.90;;;;;;5025894;28;20349;-75
2022/11/28 05:02:15;;;;;;;6.07;5.57;;;-5.20;99.90;;;;;;5020535;28;20184;-75
2022/11/28 05:04:43;;;;;;;7.30;5.50;;;-6.20;99.90;;;;;;5017465;28;20652;-74
2022/11/28 05:07:09;;;;;;;5.40;4.90;;;-5.60;99.90;;;;;;5049295;28;20189;-77
2022/11/28 05:09:36;;;;;;;5.87;5.37;;;-5.80;99.90;;;;;;5021343;28;20302;-79
2022/11/28 05:12:02;;;;;;;6.77;6.17;;;-6.30;99.90;;;;;;5017654;28;20182;-81
2022/11/28 05:14:28;;;;;;;5.67;5.17;;;-7.00;99.90;;;;;;5017156;28;20189;-81
2022/11/28 05:16:54;;;;;;;6.03;5.43;;;-7.30;99.90;;;;;;5017466;28;20251;-80
2022/11/28 05:19:20;;;;;;;7.23;6.53;;;-8.10;99.90;;;;;;5017849;28;20323;-81
2022/11/28 05:21:45;;;;;;;6.93;6.33;;;-8.60;99.90;;;;;;5017317;28;20194;-78
2022/11/28 05:24:11;;;;;;;7.40;6.70;;;-7.90;99.90;;;;;;5028144;28;20288;-79
2022/11/28 05:26:37;;;;;;;8.13;6.83;;;-6.60;99.90;;;;;;5029730;28;20242;-82
2022/11/28 05:29:04;;;;;;;7.10;6.60;;;-8.90;99.90;;;;;;5017135;28;20248;-82
2022/11/28 05:31:30;;;;;;;7.33;6.83;;;-8.30;99.90;;;;;;5021604;28;20215;-79
2022/11/28 05:33:56;;;;;;;5.90;5.40;;;-8.30;99.90;;;;;;5017605;28;20209;-79
2022/11/28 05:36:22;;;;;;;7.37;6.67;;;-8.00;99.90;;;;;;5015892;28;20633;-80
2022/11/28 05:38:48;;;;;;;7.20;6.70;;;-8.80;99.90;;;;;;5017073;28;20268;-81
2022/11/28 05:41:21;;;;;;;6.87;6.37;;;-8.10;99.90;;;;;;5016960;28;20177;-80
2022/11/28 05:43:47;;;;;;;7.30;6.70;;;-6.10;99.90;;;;;;5016701;28;20220;-78
2022/11/28 05:46:16;;;;;;;8.37;6.40;;;-6.50;99.90;;;;;;5016903;28;20264;-79
2022/11/28 05:48:42;;;;;;;7.23;6.63;;;-6.50;99.90;;;;;;5016895;28;20177;-77
2022/11/28 05:51:07;;;;;;;7.00;6.40;;;-4.80;99.90;;;;;;5016604;28;20454;-82
2022/11/28 05:53:34;;;;;;;6.90;6.30;;;-6.20;99.90;;;;;;5016608;28;20212;-78
2022/11/28 05:56:06;;;;;;;6.27;5.77;;;-7.00;99.90;;;;;;5020822;28;20268;-80
2022/11/28 05:58:32;;;;;;;7.20;6.60;;;-6.50;99.90;;;;;;5020781;28;20198;-81
2022/11/28 06:00:57;;;;;;;7.57;6.87;;;-6.40;99.90;;;;;;5016715;28;20186;-80
2022/11/28 06:03:23;;;;;;;8.47;7.53;;;-4.80;99.90;;;;;;5019945;28;20304;-80
2022/11/28 06:05:49;;;;;;;8.13;7.30;;;-6.50;99.90;;;;;;5022569;28;20593;-80
2022/11/28 06:08:15;;;;;;;7.23;6.63;;;-5.40;99.90;;;;;;5018102;28;20597;-80
2022/11/28 06:10:41;;;;;;;7.37;6.67;;;-5.90;99.90;;;;;;5017896;28;20185;-81
2022/11/28 06:13:07;;;;;;;7.60;6.90;;;-6.20;99.90;;;;;;5027860;28;20174;-80
2022/11/28 06:15:34;;;;;;;8.37;7.67;;;-5.50;99.90;;;;;;5019847;28;20240;-82
2022/11/28 06:17:59;;;;;;;7.83;7.13;;;-5.40;99.90;;;;;;5016681;28;20270;-81
2022/11/28 06:20:25;;;;;;;9.23;8.43;;;-6.50;99.90;;;;;;5016235;28;20602;-82
2022/11/28 06:22:51;;;;;;;8.13;7.40;;;-6.10;99.90;;;;;;5016652;28;20194;-80
2022/11/28 06:25:17;;;;;;;10.00;9.00;;;-6.60;99.90;;;;;;5015675;28;20675;-82
2022/11/28 06:27:42;;;;;;;9.47;8.63;;;-6.30;99.90;;;;;;5022074;28;20641;-81
2022/11/28 06:30:08;;;;;;;8.60;7.70;;;-6.70;99.90;;;;;;5016094;28;20185;-82
2022/11/28 06:32:34;;;;;;;8.87;8.00;;;-7.00;99.90;;;;;;5016409;28;20251;-80
2022/11/28 06:35:00;;;;;;;8.13;7.40;;;-5.70;99.90;;;;;;5015183;28;20228;-79
2022/11/28 06:37:26;;;;;;;8.13;7.43;;;-6.50;99.90;;;;;;5047828;28;20220;-81
2022/11/28 06:39:52;;;;;;;8.77;7.93;;;-6.10;99.90;;;;;;5015816;28;20224;-81
2022/11/28 06:42:18;;;;;;;8.97;8.07;;;-6.10;99.90;;;;;;5016320;28;20545;-84
2022/11/28 06:44:44;;;;;;;7.93;7.23;;;-8.50;99.90;;;;;;5016170;28;20628;-83
2022/11/28 06:47:10;;;;;;;8.37;7.57;;;-8.60;99.90;;;;;;5030533;28;20185;-82
2022/11/28 06:49:35;;;;;;;8.30;7.60;;;-8.40;99.90;;;;;;5019149;28;20181;-85
2022/11/28 06:52:01;;;;;;;7.90;7.20;;;-7.70;99.90;;;;;;5016033;28;20193;-82
2022/11/28 06:54:28;;;;;;;7.53;6.87;;;-9.40;99.90;;;;;;5016128;28;20619;-83
2022/11/28 06:56:53;;;;;;;6.37;5.77;;;-9.30;99.90;;;;;;5020397;28;20253;-82
2022/11/28 06:59:19;;;;;;;5.30;4.80;;;-9.20;99.90;;;;;;5015741;28;20532;-80
2022/11/28 07:01:45;;;;;;;6.63;5.87;;;-9.70;99.90;;;;;;5018129;28;20200;-81
2022/11/28 07:04:10;;;;;;;6.00;5.50;;;-7.30;99.90;;;;;;5015018;28;20223;-80
2022/11/28 07:06:36;;;;;;;6.03;5.47;;;-9.40;99.90;;;;;;5015611;28;20593;-84
2022/11/28 07:09:02;;;;;;;8.53;4.67;;;-8.90;99.90;;;;;;5021595;28;20597;-88
2022/11/28 07:11:30;;;;;;;6.10;5.50;;;-9.90;99.90;;;;;;5016095;28;20684;-84
2022/11/28 07:13:59;;;;;;;5.90;5.33;;;-9.70;99.90;;;;;;5024201;28;20256;-81
2022/11/28 07:16:30;;;;;;;6.63;6.10;;;-9.20;99.90;;;;;;5014911;28;20186;-82
2022/11/28 07:18:57;;;;;;;5.17;4.77;;;-10.10;99.90;;;;;;5015378;28;20194;-83
2022/11/28 07:21:24;;;;;;;4.73;4.27;;;-9.60;99.90;;;;;;5021616;28;20497;-81
2022/11/28 07:23:50;;;;;;;4.60;4.30;;;-9.00;99.90;;;;;;5022541;28;20213;-75
2022/11/28 07:26:17;;;;;;;4.77;4.40;;;-9.10;99.90;;;;;;5030723;28;20280;-79
2022/11/28 07:28:44;;;;;;;4.40;4.00;;;-9.60;99.90;;;;;;5027697;28;20194;-79
2022/11/28 07:31:18;;;;;;;5.10;4.70;;;-7.90;99.90;;;;;;5023080;28;20183;-77
2022/11/28 07:33:46;;;;;;;4.97;4.57;;;-8.60;99.90;;;;;;5014050;28;20204;-82
2022/11/28 07:36:24;;;;;;;6.63;5.97;;;-7.30;99.90;;;;;;5019322;28;20224;-77
2022/11/28 07:38:53;;;;;;;6.40;5.30;;;-8.00;99.90;;;;;;5024043;28;20280;-79
2022/11/28 07:41:19;;;;;;;6.23;5.73;;;-9.00;99.90;;;;;;5015966;28;20191;-78
2022/11/28 07:43:46;;;;;;;6.83;5.83;;;-8.70;99.90;;;;;;5014997;28;20628;-78
2022/11/28 07:46:14;;;;;;;7.10;6.50;;;-9.30;99.90;;;;;;5014548;28;20191;-78
2022/11/28 07:48:40;;;;;;;7.63;6.83;;;-8.90;99.90;;;;;;5023120;28;20190;-80
2022/11/28 07:51:21;;;;;;;7.33;6.63;;;-7.90;99.90;;;;;;5019850;28;20178;-78
2022/11/28 07:53:48;;;;;;;7.33;6.73;;;-7.50;99.90;;;;;;5015617;28;20677;-80
2022/11/28 07:56:16;;;;;;;8.97;8.13;;;-8.90;99.90;;;;;;5014456;28;20343;-76
2022/11/28 07:58:44;;;;;;;7.47;6.70;;;-7.90;99.90;;;;;;5014535;28;20786;-79
2022/11/28 08:01:18;;;;;;;8.80;7.90;;;-8.40;99.90;;;;;;5017701;28;20190;-79
2022/11/28 08:03:45;;;;;;;8.87;8.07;;;-7.90;99.90;;;;;;5014214;28;20222;-77
2022/11/28 08:06:12;;;;;;;8.97;7.73;;;-7.40;99.90;;;;;;5021224;28;20185;-80
2022/11/28 08:08:39;;;;;;;8.50;7.70;;;-7.60;99.90;;;;;;5021104;28;20184;-78
2022/11/28 08:11:07;;;;;;;9.00;8.10;;;-7.30;99.90;;;;;;5014288;28;20231;-79
2022/11/28 08:13:34;;;;;;;7.57;6.87;;;-7.00;99.90;;;;;;5014105;28;20181;-80
2022/11/28 08:16:05;;;;;;;7.97;7.27;;;-8.30;99.90;;;;;;5013867;28;20194;-74
2022/11/28 08:18:32;;;;;;;8.90;8.00;;;-7.10;99.90;;;;;;5015485;28;20193;-74
2022/11/28 08:21:15;;;;;;;8.53;7.50;;;-5.20;99.90;;;;;;5014613;28;20190;-75
2022/11/28 08:23:44;;;;;;;9.60;7.23;;;-7.50;99.90;;;;;;5013882;28;20206;-73
2022/11/28 08:26:12;;;;;;;8.47;7.67;;;-8.30;99.90;;;;;;5014743;28;20499;-77
2022/11/28 08:28:38;;;;;;;9.90;8.80;;;-8.70;99.90;;;;;;5017144;28;20259;-77
2022/11/28 08:31:12;;;;;;;9.27;7.70;;;-8.10;99.90;;;;;;5013610;28;20185;-73
2022/11/28 08:33:38;;;;;;;10.43;8.80;;;-8.40;99.90;;;;;;5021847;28;21444;-74
2022/11/28 08:36:16;;;;;;;11.93;8.90;;;-8.30;99.90;;;;;;5020812;28;20601;-75
2022/11/28 08:38:45;;;;;;;12.97;8.60;;;-7.30;99.90;;;;;;5016646;28;20605;-78
2022/11/28 08:41:14;;;;;;;10.47;8.17;;;-7.40;99.90;;;;;;5014081;28;20290;-78
2022/11/28 08:43:40;;;;;;;18.73;9.83;;;-7.10;99.90;;;;;;5026198;28;20202;-79
2022/11/28 08:46:10;;;;;;;9.70;8.70;;;-6.90;99.90;;;;;;5016500;28;20189;-78
2022/11/28 08:48:38;;;;;;;14.20;9.77;;;-6.20;99.90;;;;;;5013936;28;20180;-77
2022/11/28 08:51:05;;;;;;;15.27;10.23;;;-6.10;99.90;;;;;;5013953;28;20198;-75
2022/11/28 08:53:31;;;;;;;11.00;9.87;;;-5.80;99.90;;;;;;5022179;28;20210;-74
2022/11/28 08:55:57;;;;;;;13.47;11.17;;;-6.30;99.90;;;;;;5014193;28;20192;-79
2022/11/28 08:58:23;;;;;;;13.33;9.87;;;-7.00;99.90;;;;;;5013717;28;20181;-79
2022/11/28 09:00:49;;;;;;;10.23;9.20;;;-7.30;99.90;;;;;;5024245;28;20655;-74
2022/11/28 09:03:17;;;;;;;13.80;10.43;;;-6.80;99.90;;;;;;5014565;28;20210;-74
2022/11/28 09:05:45;;;;;;;13.93;10.63;;;-6.00;99.90;;;;;;5013509;28;20212;-74
2022/11/28 09:08:12;;;;;;;19.20;10.73;;;-9.60;99.90;;;;;;5018939;28;20180;-73
2022/11/28 09:10:40;;;;;;;12.50;11.03;;;-8.80;99.90;;;;;;5019818;28;20174;-80
2022/11/28 09:13:06;;;;;;;15.70;10.07;;;-9.40;99.90;;;;;;5017087;28;20195;-81
2022/11/28 09:15:32;;;;;;;12.07;10.97;;;-8.90;99.90;;;;;;5013717;28;20180;-79
2022/11/28 09:17:58;;;;;;;13.93;11.90;;;-8.30;99.90;;;;;;5016036;28;20231;-78
2022/11/28 09:20:24;;;;;;;11.70;10.60;;;-8.20;99.90;;;;;;5017445;28;20528;-75
2022/11/28 09:22:50;;;;;;;12.10;10.20;;;-9.40;99.90;;;;;;5021153;28;20187;-74
2022/11/28 09:25:16;;;;;;;16.33;10.57;;;-9.30;99.90;;;;;;5017206;28;20631;-75
2022/11/28 09:27:42;;;;;;;18.67;11.40;;;-9.10;99.90;;;;;;5030028;28;20178;-75
2022/11/28 09:30:11;;;;;;;16.80;10.67;;;-8.50;99.90;;;;;;5016712;28;20182;-77
2022/11/28 09:32:39;;;;;;;12.83;9.53;;;-8.90;99.90;;;;;;5019474;28;20181;-77
2022/11/28 09:35:05;;;;;;;17.67;13.40;;;-8.10;99.90;;;;;;5018984;28;20192;-79
2022/11/28 09:37:32;;;;;;;15.37;12.23;;;-7.00;99.90;;;;;;5019495;28;20197;-79
2022/11/28 09:39:57;;;;;;;16.53;13.03;;;-8.30;99.90;;;;;;5026883;28;20195;-81
2022/11/28 09:42:33;;;;;;;15.63;11.53;;;-8.50;99.90;;;;;;5016985;28;20497;-77
2022/11/28 09:45:13;;;;;;;16.30;12.37;;;-8.40;99.90;;;;;;5022019;28;20213;-74
2022/11/28 09:47:41;;;;;;;15.40;10.73;;;-8.70;99.90;;;;;;5016735;28;20186;-73
2022/11/28 09:50:15;;;;;;;15.37;11.50;;;-8.20;99.90;;;;;;5016646;28;20196;-77
2022/11/28 09:53:16;;;;;;;13.00;10.47;;;-9.50;99.90;;;;;;5019114;28;20178;-74
2022/11/28 09:55:51;;;;;;;15.90;10.87;;;-9.80;99.90;;;;;;5037365;28;20212;-76
2022/11/28 09:58:25;;;;;;;15.07;12.33;;;-9.90;99.90;;;;;;5017654;28;20183;-74
2022/11/28 10:01:24;;;;;;;13.83;11.97;;;-9.00;99.90;;;;;;5016327;28;20200;-74
2022/11/28 10:04:15;;;;;;;18.23;12.73;;;-10.60;99.90;;;;;;5015933;28;20222;-72
2022/11/28 10:07:03;;;;;;;18.27;12.27;;;-9.10;99.90;;;;;;5018485;28;20211;-73
2022/11/28 10:09:33;;;;;;;14.00;10.57;;;-10.30;99.90;;;;;;5016348;28;20176;-72
2022/11/28 10:12:17;;;;;;;19.30;12.43;;;-10.50;99.90;;;;;;5016072;28;20193;-73
2022/11/28 10:14:55;;;;;;;17.47;11.30;;;-8.80;99.90;;;;;;5016324;28;20189;-74
2022/11/28 10:17:33;;;;;;;16.67;10.67;;;-9.00;99.90;;;;;;5015771;28;20191;-76
2022/11/28 10:20:12;;;;;;;19.87;11.77;;;-7.60;99.90;;;;;;5026466;28;20491;-73
2022/11/28 10:22:46;;;;;;;14.00;10.40;;;-7.20;99.90;;;;;;5022497;28;20298;-75
2022/11/28 10:25:16;;;;;;;16.90;11.43;;;-10.60;99.90;;;;;;5015578;28;20637;-73
2022/11/28 10:27:41;;;;;;;18.30;11.87;;;-9.70;99.90;;;;;;5023039;28;20236;-77
2022/11/28 10:30:24;;;;;;;18.90;11.20;;;-9.70;99.90;;;;;;5016253;28;20275;-77
2022/11/28 10:32:58;;;;;;;11.90;10.37;;;-9.40;99.90;;;;;;5026562;28;20189;-76
2022/11/28 10:35:45;;;;;;;18.70;10.50;;;-9.70;99.90;;;;;;5015634;28;20196;-77
2022/11/28 10:38:13;;;;;;;17.80;11.50;;;-9.50;99.90;;;;;;5020278;28;20207;-75
2022/11/28 10:40:54;;;;;;;14.67;10.37;;;-8.20;99.90;;;;;;5021902;28;20339;-78
2022/11/28 10:44:05;;;;;;;20.13;12.63;;;-9.90;99.90;;;;;;5017424;28;20233;-75
2022/11/28 10:46:39;;;;;;;15.03;10.67;;;-11.00;99.90;;;;;;5028232;28;20203;-75
2022/11/28 10:49:11;;;;;;;16.10;11.47;;;-10.70;99.90;;;;;;5021753;28;20230;-78
2022/11/28 10:51:48;;;;;;;12.27;10.80;;;-9.70;99.90;;;;;;5015902;28;20211;-74
2022/11/28 10:54:49;;;;;;;16.73;11.13;;;-9.20;99.90;;;;;;5022832;28;20234;-77
2022/11/28 10:57:21;;;;;;;18.97;12.47;;;-8.30;99.90;;;;;;5005286;28;20656;-79
2022/11/28 10:59:57;;;;;;;19.60;11.40;;;-11.40;99.90;;;;;;5018841;28;20215;-75
2022/11/28 11:02:39;;;;;;;17.23;12.07;;;-10.30;99.90;;;;;;5016074;28;20184;-77
2022/11/28 11:05:10;;;;;;;15.53;11.57;;;-11.10;99.90;;;;;;5015266;28;20224;-77
2022/11/28 11:07:36;;;;;;;19.67;11.33;;;-9.00;99.90;;;;;;5019523;28;20216;-78
2022/11/28 11:10:18;;;;;;;18.03;11.27;;;-7.00;99.90;;;;;;5014875;28;20279;-79
2022/11/28 11:12:45;;;;;;;26.07;11.50;;;-6.00;99.90;;;;;;5015374;28;20184;-77
2022/11/28 11:15:29;;;;;;;15.60;11.63;;;-8.60;99.90;;;;;;5015326;28;20609;-76
2022/11/28 11:17:57;;;;;;;19.30;11.13;;;-10.10;99.90;;;;;;5014328;28;20192;-77
2022/11/28 11:20:37;;;;;;;19.83;11.20;;;-7.90;99.90;;;;;;5018688;28;20223;-77
2022/11/28 11:23:12;;;;;;;16.47;11.63;;;-8.80;99.90;;;;;;5015290;28;20514;-77
2022/11/28 11:25:54;;;;;;;16.60;11.40;;;-7.20;99.90;;;;;;5027010;28;20209;-73
2022/11/28 11:28:42;;;;;;;17.43;12.53;;;-8.00;99.90;;;;;;5015797;28;20340;-79
2022/11/28 11:31:17;;;;;;;22.80;14.30;;;-8.50;99.90;;;;;;5017012;28;20726;-75
2022/11/28 11:33:43;;;;;;;26.03;13.87;;;-6.40;99.90;;;;;;5019352;28;20207;-73
2022/11/28 11:36:22;;;;;;;16.83;12.10;;;-8.80;99.90;;;;;;5024739;28;20598;-79
2022/11/28 11:38:47;;;;;;;23.37;13.00;;;-10.60;99.90;;;;;;5030913;28;20584;-76
2022/11/28 11:41:27;;;;;;;24.50;12.23;;;-11.00;99.90;;;;;;5020754;28;20195;-80
2022/11/28 11:43:53;;;;;;;16.60;11.83;;;-8.50;99.90;;;;;;5022368;28;20204;-79
2022/11/28 11:46:19;;;;;;;18.50;12.43;;;-9.50;99.90;;;;;;5020484;28;20207;-78
2022/11/28 11:48:47;;;;;;;16.27;12.77;;;-9.00;99.90;;;;;;5019737;28;20577;-78
2022/11/28 11:51:24;;;;;;;15.80;11.23;;;-8.50;99.90;;;;;;5015708;28;20896;-80
2022/11/28 11:54:01;;;;;;;17.10;12.60;;;-8.80;99.90;;;;;;5015948;28;20204;-78
2022/11/28 11:56:36;;;;;;;27.23;12.80;;;-10.30;99.90;;;;;;5017174;28;20599;-80
2022/11/28 11:59:24;;;;;;;20.73;13.57;;;-9.50;99.90;;;;;;5022319;28;20183;-80
2022/11/28 12:01:59;;;;;;;13.83;9.53;;;-9.80;99.90;;;;;;5026608;28;20769;-82
2022/11/28 12:04:41;;;;;;;19.77;11.37;;;-8.70;99.90;;;;;;5023993;28;20221;-77
2022/11/28 12:07:20;;;;;;;17.60;12.90;;;-9.30;99.90;;;;;;5032523;28;20184;-82
2022/11/28 12:09:50;;;;;;;23.37;12.40;;;-8.70;99.90;;;;;;5021368;28;20188;-79
2022/11/28 12:12:21;;;;;;;26.80;12.00;;;-9.10;99.90;;;;;;5022208;28;20267;-80
2022/11/28 12:14:48;;;;;;;23.93;12.40;;;-7.60;99.90;;;;;;5022537;28;20189;-79
2022/11/28 12:17:46;;;;;;;22.33;11.60;;;-6.80;99.90;;;;;;5018069;28;20219;-79
2022/11/28 12:20:20;;;;;;;25.63;11.27;;;-7.20;99.90;;;;;;5021444;28;20191;-81
2022/11/28 12:23:11;;;;;;;21.90;11.83;;;-7.70;99.90;;;;;;5021763;28;20196;-75
2022/11/28 12:25:39;;;;;;;22.47;12.63;;;-7.60;99.90;;;;;;5016914;28;20266;-76
2022/11/28 12:28:25;;;;;;;20.07;10.70;;;-8.40;99.90;;;;;;5016778;28;20188;-79
2022/11/28 12:31:09;;;;;;;21.17;12.83;;;-8.40;99.90;;;;;;5027041;28;20267;-80
2022/11/28 12:33:42;;;;;;;17.93;10.60;;;-9.30;99.90;;;;;;5015171;28;20189;-76
2022/11/28 12:36:16;;;;;;;14.30;10.93;;;-7.50;99.90;;;;;;5015406;28;20174;-74
2022/11/28 12:39:34;;;;;;;17.47;11.67;;;-6.80;99.90;;;;;;5027854;28;20241;-79
2022/11/28 12:42:04;;;;;;;23.10;11.67;;;-6.90;99.90;;;;;;5021544;28;20207;-78
2022/11/28 12:44:51;;;;;;;20.87;11.87;;;-8.60;99.90;;;;;;5032285;28;20239;-78
2022/11/28 12:47:41;;;;;;;15.00;11.13;;;-8.70;99.90;;;;;;5023248;28;20188;-77
2022/11/28 12:50:29;;;;;;;18.67;11.13;;;-8.10;99.90;;;;;;5022162;28;20189;-79
2022/11/28 12:53:19;;;;;;;14.40;9.10;;;-7.70;99.90;;;;;;5022324;28;20208;-79
2022/11/28 12:55:48;;;;;;;15.77;9.07;;;-10.70;99.90;;;;;;5059809;28;20192;-75
2022/11/28 12:58:25;;;;;;;24.27;9.93;;;-8.90;99.90;;;;;;5034269;28;20186;-77
2022/11/28 13:01:03;;;;;;;12.47;8.37;;;-9.00;99.90;;;;;;5063533;28;20189;-75
2022/11/28 13:03:53;;;;;;;13.80;9.37;;;-8.00;99.90;;;;;;5027115;28;20219;-77
2022/11/28 13:06:37;;;;;;;16.97;10.13;;;-8.00;99.90;;;;;;5029967;28;20176;-75
2022/11/28 13:09:18;;;;;;;11.73;8.53;;;-8.30;99.90;;;;;;5019572;28;20311;-78